sensor_id;sensor_type;location;lat;lon;timestamp;temperature;humidity
40287;DHT22;25998;46.604;13.610;2023-09-18T00:00:54;17.40;99.90
40287;DHT22;25998;46.604;13.610;2023-09-18T00:04:07;17.40;99.90
40287;DHT22;25998;46.604;13.610;2023-09-18T00:07:18;17.60;99.90
40287;DHT22;25998;46.604;13.610;2023-09-18T00:10:29;17.70;99.90
40287;DHT22;25998;46.604;13.610;2023-09-18T00:13:41;17.70;99.90
40287;DHT22;25998;46.604;13.610;2023-09-18T00:16:51;17.50;99.90
40287;DHT22;25998;46.604;13.610;2023-09-18T00:20:04;17.30;99.90
40287;DHT22;25998;46.604;13.610;2023-09-18T00:23:19;17.10;99.90
40287;DHT22;25998;46.604;13.610;2023-09-18T00:26:30;17.30;99.90
40287;DHT22;25998;46.604;13.610;2023-09-18T00:29:41;17.40;99.90
40287;DHT22;25998;46.604;13.610;2023-09-18T00:32:51;17.50;99.90
40287;DHT22;25998;46.604;13.610;2023-09-18T00:36:02;17.30;99.90
40287;DHT22;25998;46.604;13.610;2023-09-18T00:39:13;17.40;99.90
40287;DHT22;25998;46.604;13.610;2023-09-18T00:42:26;17.30;99.90
40287;DHT22;25998;46.604;13.610;2023-09-18T00:45:45;17.10;99.90
40287;DHT22;25998;46.604;13.610;2023-09-18T00:48:56;17.00;99.90
40287;DHT22;25998;46.604;13.610;2023-09-18T00:52:09;17.10;99.90
40287;DHT22;25998;46.604;13.610;2023-09-18T00:55:20;17.20;99.90
40287;DHT22;25998;46.604;13.610;2023-09-18T00:58:32;17.30;99.90
40287;DHT22;25998;46.604;13.610;2023-09-18T01:01:44;17.10;99.90
40287;DHT22;25998;46.604;13.610;2023-09-18T01:04:56;17.20;99.90
40287;DHT22;25998;46.604;13.610;2023-09-18T01:08:06;17.40;99.90
40287;DHT22;25998;46.604;13.610;2023-09-18T01:15:19;17.60;99.90
40287;DHT22;25998;46.604;13.610;2023-09-18T01:18:35;17.20;99.90
40287;DHT22;25998;46.604;13.610;2023-09-18T01:21:45;17.30;99.90
40287;DHT22;25998;46.604;13.610;2023-09-18T01:24:56;17.50;99.90
40287;DHT22;25998;46.604;13.610;2023-09-18T01:28:07;17.60;99.90
40287;DHT22;25998;46.604;13.610;2023-09-18T01:31:18;17.30;99.90
40287;DHT22;25998;46.604;13.610;2023-09-18T01:34:34;17.40;99.90
40287;DHT22;25998;46.604;13.610;2023-09-18T01:37:52;17.10;99.90
40287;DHT22;25998;46.604;13.610;2023-09-18T01:41:04;17.00;99.90
40287;DHT22;25998;46.604;13.610;2023-09-18T01:44:15;16.90;99.90
40287;DHT22;25998;46.604;13.610;2023-09-18T01:47:26;16.80;99.90
40287;DHT22;25998;46.604;13.610;2023-09-18T01:50:40;16.70;99.90
40287;DHT22;25998;46.604;13.610;2023-09-18T01:53:52;16.70;99.90
40287;DHT22;25998;46.604;13.610;2023-09-18T01:57:04;16.60;99.90
40287;DHT22;25998;46.604;13.610;2023-09-18T02:00:16;16.70;99.90
40287;DHT22;25998;46.604;13.610;2023-09-18T02:03:26;17.00;99.90
40287;DHT22;25998;46.604;13.610;2023-09-18T02:06:37;17.10;99.90
40287;DHT22;25998;46.604;13.610;2023-09-18T02:09:48;17.10;99.90
40287;DHT22;25998;46.604;13.610;2023-09-18T02:12:59;17.00;99.90
40287;DHT22;25998;46.604;13.610;2023-09-18T02:16:10;16.70;99.90
40287;DHT22;25998;46.604;13.610;2023-09-18T02:19:21;16.60;99.90
40287;DHT22;25998;46.604;13.610;2023-09-18T02:22:32;16.40;99.90
40287;DHT22;25998;46.604;13.610;2023-09-18T02:25:43;16.30;99.90
40287;DHT22;25998;46.604;13.610;2023-09-18T02:28:58;16.40;99.90
40287;DHT22;25998;46.604;13.610;2023-09-18T02:32:09;16.50;99.90
40287;DHT22;25998;46.604;13.610;2023-09-18T02:35:20;16.40;99.90
40287;DHT22;25998;46.604;13.610;2023-09-18T02:38:32;16.30;99.90
40287;DHT22;25998;46.604;13.610;2023-09-18T02:41:43;16.20;99.90
40287;DHT22;25998;46.604;13.610;2023-09-18T02:44:54;16.30;99.90
40287;DHT22;25998;46.604;13.610;2023-09-18T02:48:05;16.20;99.90
40287;DHT22;25998;46.604;13.610;2023-09-18T02:51:16;16.20;99.90
40287;DHT22;25998;46.604;13.610;2023-09-18T02:54:27;16.40;99.90
40287;DHT22;25998;46.604;13.610;2023-09-18T02:57:38;16.40;99.90
40287;DHT22;25998;46.604;13.610;2023-09-18T03:00:50;16.30;99.90
40287;DHT22;25998;46.604;13.610;2023-09-18T03:04:01;16.10;99.90
40287;DHT22;25998;46.604;13.610;2023-09-18T03:07:15;16.10;99.90
40287;DHT22;25998;46.604;13.610;2023-09-18T03:10:26;16.20;99.90
40287;DHT22;25998;46.604;13.610;2023-09-18T03:13:42;16.20;99.90
40287;DHT22;25998;46.604;13.610;2023-09-18T03:16:53;16.30;99.90
40287;DHT22;25998;46.604;13.610;2023-09-18T03:20:04;16.20;99.90
40287;DHT22;25998;46.604;13.610;2023-09-18T03:23:16;16.40;99.90
40287;DHT22;25998;46.604;13.610;2023-09-18T03:26:27;16.60;99.90
40287;DHT22;25998;46.604;13.610;2023-09-18T03:29:38;16.70;99.90
40287;DHT22;25998;46.604;13.610;2023-09-18T03:32:50;16.80;99.90
40287;DHT22;25998;46.604;13.610;2023-09-18T03:36:01;16.90;99.90
40287;DHT22;25998;46.604;13.610;2023-09-18T03:39:13;16.80;99.90
40287;DHT22;25998;46.604;13.610;2023-09-18T03:42:24;16.70;99.90
40287;DHT22;25998;46.604;13.610;2023-09-18T03:45:36;16.30;99.90
40287;DHT22;25998;46.604;13.610;2023-09-18T03:48:47;16.20;99.90
40287;DHT22;25998;46.604;13.610;2023-09-18T03:51:58;16.40;99.90
40287;DHT22;25998;46.604;13.610;2023-09-18T03:55:08;16.50;99.90
40287;DHT22;25998;46.604;13.610;2023-09-18T03:58:19;16.40;99.90
40287;DHT22;25998;46.604;13.610;2023-09-18T04:01:31;16.50;99.90
40287;DHT22;25998;46.604;13.610;2023-09-18T04:04:41;16.60;99.90
40287;DHT22;25998;46.604;13.610;2023-09-18T04:07:52;16.60;99.90
40287;DHT22;25998;46.604;13.610;2023-09-18T04:11:03;16.40;99.90
40287;DHT22;25998;46.604;13.610;2023-09-18T04:14:14;16.20;99.90
40287;DHT22;25998;46.604;13.610;2023-09-18T04:17:25;16.10;99.90
40287;DHT22;25998;46.604;13.610;2023-09-18T04:20:36;16.00;99.90
40287;DHT22;25998;46.604;13.610;2023-09-18T04:23:48;16.00;99.90
40287;DHT22;25998;46.604;13.610;2023-09-18T04:26:59;16.00;99.90
40287;DHT22;25998;46.604;13.610;2023-09-18T04:30:10;16.10;99.90
40287;DHT22;25998;46.604;13.610;2023-09-18T04:33:21;16.20;99.90
40287;DHT22;25998;46.604;13.610;2023-09-18T04:36:32;16.30;99.90
40287;DHT22;25998;46.604;13.610;2023-09-18T04:39:43;16.10;99.90
40287;DHT22;25998;46.604;13.610;2023-09-18T04:42:53;15.80;99.90
40287;DHT22;25998;46.604;13.610;2023-09-18T04:46:04;15.90;99.90
40287;DHT22;25998;46.604;13.610;2023-09-18T04:49:15;16.00;99.90
40287;DHT22;25998;46.604;13.610;2023-09-18T04:52:26;16.10;99.90
40287;DHT22;25998;46.604;13.610;2023-09-18T04:55:37;16.20;99.90
40287;DHT22;25998;46.604;13.610;2023-09-18T04:58:48;16.40;99.90
40287;DHT22;25998;46.604;13.610;2023-09-18T05:01:59;16.20;99.90
40287;DHT22;25998;46.604;13.610;2023-09-18T05:05:10;16.00;99.90
40287;DHT22;25998;46.604;13.610;2023-09-18T05:08:21;16.20;99.90
40287;DHT22;25998;46.604;13.610;2023-09-18T05:11:33;16.30;99.90
40287;DHT22;25998;46.604;13.610;2023-09-18T05:14:44;16.40;99.90
40287;DHT22;25998;46.604;13.610;2023-09-18T05:17:57;16.20;99.90
40287;DHT22;25998;46.604;13.610;2023-09-18T05:21:09;16.00;99.90
40287;DHT22;25998;46.604;13.610;2023-09-18T05:24:20;16.00;99.90
40287;DHT22;25998;46.604;13.610;2023-09-18T05:27:38;16.20;99.90
40287;DHT22;25998;46.604;13.610;2023-09-18T05:30:55;16.40;99.90
40287;DHT22;25998;46.604;13.610;2023-09-18T05:34:06;16.40;99.90
40287;DHT22;25998;46.604;13.610;2023-09-18T05:37:16;16.30;99.90
40287;DHT22;25998;46.604;13.610;2023-09-18T05:40:27;16.20;99.90
40287;DHT22;25998;46.604;13.610;2023-09-18T05:43:38;16.20;99.90
40287;DHT22;25998;46.604;13.610;2023-09-18T05:46:49;16.20;99.90
40287;DHT22;25998;46.604;13.610;2023-09-18T05:50:00;16.40;99.90
40287;DHT22;25998;46.604;13.610;2023-09-18T05:53:11;16.50;99.90
40287;DHT22;25998;46.604;13.610;2023-09-18T05:56:22;16.50;99.90
40287;DHT22;25998;46.604;13.610;2023-09-18T05:59:34;16.40;99.90
40287;DHT22;25998;46.604;13.610;2023-09-18T06:02:45;16.50;99.90
40287;DHT22;25998;46.604;13.610;2023-09-18T06:05:56;16.50;99.90
40287;DHT22;25998;46.604;13.610;2023-09-18T06:09:07;16.70;99.90
40287;DHT22;25998;46.604;13.610;2023-09-18T06:12:18;16.90;99.90
40287;DHT22;25998;46.604;13.610;2023-09-18T06:15:29;16.90;99.90
40287;DHT22;25998;46.604;13.610;2023-09-18T06:18:39;16.80;99.90
40287;DHT22;25998;46.604;13.610;2023-09-18T06:21:50;16.80;99.90
40287;DHT22;25998;46.604;13.610;2023-09-18T06:25:01;16.80;99.90
40287;DHT22;25998;46.604;13.610;2023-09-18T06:28:12;16.80;99.90
40287;DHT22;25998;46.604;13.610;2023-09-18T06:31:23;16.80;99.90
40287;DHT22;25998;46.604;13.610;2023-09-18T06:34:35;17.00;99.90
40287;DHT22;25998;46.604;13.610;2023-09-18T06:37:46;17.10;99.90
40287;DHT22;25998;46.604;13.610;2023-09-18T06:40:57;17.20;99.90
40287;DHT22;25998;46.604;13.610;2023-09-18T06:44:07;17.20;99.90
40287;DHT22;25998;46.604;13.610;2023-09-18T06:47:18;17.30;99.90
40287;DHT22;25998;46.604;13.610;2023-09-18T06:50:29;17.40;99.90
40287;DHT22;25998;46.604;13.610;2023-09-18T06:53:42;17.60;99.90
40287;DHT22;25998;46.604;13.610;2023-09-18T06:56:54;17.60;99.90
40287;DHT22;25998;46.604;13.610;2023-09-18T07:00:05;17.50;99.90
40287;DHT22;25998;46.604;13.610;2023-09-18T07:03:16;17.50;99.90
40287;DHT22;25998;46.604;13.610;2023-09-18T07:06:28;17.50;99.90
40287;DHT22;25998;46.604;13.610;2023-09-18T07:09:40;17.50;99.90
40287;DHT22;25998;46.604;13.610;2023-09-18T07:12:52;17.70;99.90
40287;DHT22;25998;46.604;13.610;2023-09-18T07:16:02;18.00;99.90
40287;DHT22;25998;46.604;13.610;2023-09-18T07:19:13;18.10;99.90
40287;DHT22;25998;46.604;13.610;2023-09-18T07:22:27;18.40;99.90
40287;DHT22;25998;46.604;13.610;2023-09-18T07:25:38;18.80;99.90
40287;DHT22;25998;46.604;13.610;2023-09-18T07:28:50;19.30;99.90
40287;DHT22;25998;46.604;13.610;2023-09-18T07:32:00;19.70;99.90
40287;DHT22;25998;46.604;13.610;2023-09-18T07:35:12;20.10;99.90
40287;DHT22;25998;46.604;13.610;2023-09-18T07:38:25;20.30;99.90
40287;DHT22;25998;46.604;13.610;2023-09-18T07:41:35;20.60;99.90
40287;DHT22;25998;46.604;13.610;2023-09-18T07:44:46;21.10;99.90
40287;DHT22;25998;46.604;13.610;2023-09-18T07:47:57;21.40;99.90
40287;DHT22;25998;46.604;13.610;2023-09-18T07:51:11;21.80;99.90
40287;DHT22;25998;46.604;13.610;2023-09-18T07:54:22;22.30;99.90
40287;DHT22;25998;46.604;13.610;2023-09-18T07:57:33;22.80;99.90
40287;DHT22;25998;46.604;13.610;2023-09-18T08:00:45;22.80;99.90
40287;DHT22;25998;46.604;13.610;2023-09-18T08:03:55;22.00;99.90
40287;DHT22;25998;46.604;13.610;2023-09-18T08:07:07;21.50;99.90
40287;DHT22;25998;46.604;13.610;2023-09-18T08:10:18;21.50;99.90
40287;DHT22;25998;46.604;13.610;2023-09-18T08:13:29;21.30;99.90
40287;DHT22;25998;46.604;13.610;2023-09-18T08:16:40;21.40;99.90
40287;DHT22;25998;46.604;13.610;2023-09-18T08:19:52;21.60;99.90
40287;DHT22;25998;46.604;13.610;2023-09-18T08:23:03;21.80;99.90
40287;DHT22;25998;46.604;13.610;2023-09-18T08:26:15;21.80;99.90
40287;DHT22;25998;46.604;13.610;2023-09-18T08:29:28;22.00;99.90
40287;DHT22;25998;46.604;13.610;2023-09-18T08:32:40;22.20;99.90
40287;DHT22;25998;46.604;13.610;2023-09-18T08:35:51;22.60;99.90
40287;DHT22;25998;46.604;13.610;2023-09-18T08:39:02;23.40;99.90
40287;DHT22;25998;46.604;13.610;2023-09-18T08:42:17;24.10;99.20
40287;DHT22;25998;46.604;13.610;2023-09-18T08:48:51;24.10;99.10
40287;DHT22;25998;46.604;13.610;2023-09-18T08:52:03;23.50;99.90
40287;DHT22;25998;46.604;13.610;2023-09-18T08:55:15;23.10;99.90
40287;DHT22;25998;46.604;13.610;2023-09-18T08:58:26;22.40;99.90
40287;DHT22;25998;46.604;13.610;2023-09-18T09:01:38;22.40;99.90
40287;DHT22;25998;46.604;13.610;2023-09-18T09:04:49;22.30;99.90
40287;DHT22;25998;46.604;13.610;2023-09-18T09:08:00;22.40;99.90
40287;DHT22;25998;46.604;13.610;2023-09-18T09:11:12;22.40;99.90
40287;DHT22;25998;46.604;13.610;2023-09-18T09:14:23;22.30;99.90
40287;DHT22;25998;46.604;13.610;2023-09-18T09:17:39;22.30;99.90
40287;DHT22;25998;46.604;13.610;2023-09-18T09:21:03;22.40;99.90
40287;DHT22;25998;46.604;13.610;2023-09-18T09:24:15;22.50;99.90
40287;DHT22;25998;46.604;13.610;2023-09-18T09:27:26;22.60;99.90
40287;DHT22;25998;46.604;13.610;2023-09-18T09:30:37;22.50;99.90
40287;DHT22;25998;46.604;13.610;2023-09-18T09:33:52;22.70;99.90
40287;DHT22;25998;46.604;13.610;2023-09-18T09:37:11;22.80;99.90
40287;DHT22;25998;46.604;13.610;2023-09-18T09:40:24;22.90;99.90
40287;DHT22;25998;46.604;13.610;2023-09-18T09:43:35;22.90;99.90
40287;DHT22;25998;46.604;13.610;2023-09-18T09:46:50;22.90;99.90
40287;DHT22;25998;46.604;13.610;2023-09-18T09:50:09;23.10;99.90
40287;DHT22;25998;46.604;13.610;2023-09-18T09:53:46;23.20;99.90
40287;DHT22;25998;46.604;13.610;2023-09-18T09:57:04;23.20;99.90
40287;DHT22;25998;46.604;13.610;2023-09-18T10:00:16;23.20;99.90
40287;DHT22;25998;46.604;13.610;2023-09-18T10:03:38;23.20;99.90
40287;DHT22;25998;46.604;13.610;2023-09-18T10:07:06;23.30;99.90
40287;DHT22;25998;46.604;13.610;2023-09-18T10:10:21;23.40;99.70
40287;DHT22;25998;46.604;13.610;2023-09-18T10:13:53;23.50;99.80
40287;DHT22;25998;46.604;13.610;2023-09-18T10:17:23;23.60;99.40
40287;DHT22;25998;46.604;13.610;2023-09-18T10:20:39;23.80;99.90
40287;DHT22;25998;46.604;13.610;2023-09-18T10:27:18;24.50;98.80
40287;DHT22;25998;46.604;13.610;2023-09-18T10:30:33;24.90;98.00
40287;DHT22;25998;46.604;13.610;2023-09-18T10:33:47;25.20;98.10
40287;DHT22;25998;46.604;13.610;2023-09-18T10:37:02;25.10;98.60
40287;DHT22;25998;46.604;13.610;2023-09-18T10:40:17;24.70;99.50
40287;DHT22;25998;46.604;13.610;2023-09-18T10:43:28;24.40;99.90
40287;DHT22;25998;46.604;13.610;2023-09-18T10:46:39;24.30;99.40
40287;DHT22;25998;46.604;13.610;2023-09-18T10:49:51;24.10;99.90
40287;DHT22;25998;46.604;13.610;2023-09-18T10:53:01;24.30;99.90
40287;DHT22;25998;46.604;13.610;2023-09-18T10:56:21;24.70;99.90
40287;DHT22;25998;46.604;13.610;2023-09-18T10:59:31;24.70;99.00
40287;DHT22;25998;46.604;13.610;2023-09-18T11:02:42;24.90;98.80
40287;DHT22;25998;46.604;13.610;2023-09-18T11:06:11;24.90;97.40
40287;DHT22;25998;46.604;13.610;2023-09-18T11:09:26;24.90;99.20
40287;DHT22;25998;46.604;13.610;2023-09-18T11:12:45;24.60;98.50
40287;DHT22;25998;46.604;13.610;2023-09-18T11:19:29;24.60;99.40
40287;DHT22;25998;46.604;13.610;2023-09-18T11:22:49;24.60;99.90
40287;DHT22;25998;46.604;13.610;2023-09-18T11:26:07;24.70;99.80
40287;DHT22;25998;46.604;13.610;2023-09-18T11:29:22;25.20;99.80
40287;DHT22;25998;46.604;13.610;2023-09-18T11:32:39;25.40;97.60
40287;DHT22;25998;46.604;13.610;2023-09-18T11:35:52;25.40;98.40
40287;DHT22;25998;46.604;13.610;2023-09-18T11:39:03;25.40;97.50
40287;DHT22;25998;46.604;13.610;2023-09-18T11:42:18;25.40;97.10
40287;DHT22;25998;46.604;13.610;2023-09-18T11:45:29;25.30;97.10
40287;DHT22;25998;46.604;13.610;2023-09-18T11:48:41;25.30;97.00
40287;DHT22;25998;46.604;13.610;2023-09-18T11:51:53;25.20;96.70
40287;DHT22;25998;46.604;13.610;2023-09-18T11:55:06;25.10;96.80
40287;DHT22;25998;46.604;13.610;2023-09-18T11:58:17;25.00;96.70
40287;DHT22;25998;46.604;13.610;2023-09-18T12:01:31;25.10;97.00
40287;DHT22;25998;46.604;13.610;2023-09-18T12:04:47;25.40;97.50
40287;DHT22;25998;46.604;13.610;2023-09-18T12:07:58;25.80;96.80
40287;DHT22;25998;46.604;13.610;2023-09-18T12:11:09;25.90;96.50
40287;DHT22;25998;46.604;13.610;2023-09-18T12:14:20;25.80;97.00
40287;DHT22;25998;46.604;13.610;2023-09-18T12:17:31;26.10;97.20
40287;DHT22;25998;46.604;13.610;2023-09-18T12:20:47;26.50;96.40
40287;DHT22;25998;46.604;13.610;2023-09-18T12:23:58;26.70;95.90
40287;DHT22;25998;46.604;13.610;2023-09-18T12:27:10;26.30;95.40
40287;DHT22;25998;46.604;13.610;2023-09-18T12:30:21;25.80;94.90
40287;DHT22;25998;46.604;13.610;2023-09-18T12:33:36;25.70;96.00
40287;DHT22;25998;46.604;13.610;2023-09-18T12:36:48;25.70;96.40
40287;DHT22;25998;46.604;13.610;2023-09-18T12:40:00;25.80;96.00
40287;DHT22;25998;46.604;13.610;2023-09-18T12:43:12;25.70;95.70
40287;DHT22;25998;46.604;13.610;2023-09-18T12:46:23;25.60;95.90
40287;DHT22;25998;46.604;13.610;2023-09-18T12:49:34;25.30;97.00
40287;DHT22;25998;46.604;13.610;2023-09-18T12:52:45;25.10;98.50
40287;DHT22;25998;46.604;13.610;2023-09-18T12:56:08;25.00;98.70
40287;DHT22;25998;46.604;13.610;2023-09-18T12:59:19;25.20;98.10
40287;DHT22;25998;46.604;13.610;2023-09-18T13:02:30;25.20;98.60
40287;DHT22;25998;46.604;13.610;2023-09-18T13:05:41;25.20;99.20
40287;DHT22;25998;46.604;13.610;2023-09-18T13:08:52;25.30;99.20
40287;DHT22;25998;46.604;13.610;2023-09-18T13:12:04;25.50;97.30
40287;DHT22;25998;46.604;13.610;2023-09-18T13:15:29;25.40;97.00
40287;DHT22;25998;46.604;13.610;2023-09-18T13:18:40;25.40;96.90
40287;DHT22;25998;46.604;13.610;2023-09-18T13:21:51;25.30;99.10
40287;DHT22;25998;46.604;13.610;2023-09-18T13:25:02;25.10;99.50
40287;DHT22;25998;46.604;13.610;2023-09-18T13:28:14;25.00;99.90
40287;DHT22;25998;46.604;13.610;2023-09-18T13:31:25;24.90;99.00
40287;DHT22;25998;46.604;13.610;2023-09-18T13:34:36;25.00;98.10
40287;DHT22;25998;46.604;13.610;2023-09-18T13:37:49;24.80;97.30
40287;DHT22;25998;46.604;13.610;2023-09-18T13:41:00;24.70;96.80
40287;DHT22;25998;46.604;13.610;2023-09-18T13:44:11;24.70;96.90
40287;DHT22;25998;46.604;13.610;2023-09-18T13:47:22;24.60;95.80
40287;DHT22;25998;46.604;13.610;2023-09-18T13:50:34;24.70;96.90
40287;DHT22;25998;46.604;13.610;2023-09-18T13:53:45;24.80;97.00
40287;DHT22;25998;46.604;13.610;2023-09-18T13:56:57;24.90;96.20
40287;DHT22;25998;46.604;13.610;2023-09-18T14:00:09;24.90;96.10
40287;DHT22;25998;46.604;13.610;2023-09-18T14:03:22;24.90;96.10
40287;DHT22;25998;46.604;13.610;2023-09-18T14:06:34;24.80;97.30
40287;DHT22;25998;46.604;13.610;2023-09-18T14:09:45;24.70;96.40
40287;DHT22;25998;46.604;13.610;2023-09-18T14:12:56;24.60;96.60
40287;DHT22;25998;46.604;13.610;2023-09-18T14:16:10;24.70;96.10
40287;DHT22;25998;46.604;13.610;2023-09-18T14:19:21;24.70;98.00
40287;DHT22;25998;46.604;13.610;2023-09-18T14:22:33;24.70;97.70
40287;DHT22;25998;46.604;13.610;2023-09-18T14:25:44;24.50;97.60
40287;DHT22;25998;46.604;13.610;2023-09-18T14:28:54;24.30;99.30
40287;DHT22;25998;46.604;13.610;2023-09-18T14:32:05;24.50;98.70
40287;DHT22;25998;46.604;13.610;2023-09-18T14:35:18;24.40;99.40
40287;DHT22;25998;46.604;13.610;2023-09-18T14:38:29;24.10;98.90
40287;DHT22;25998;46.604;13.610;2023-09-18T14:41:40;24.00;99.90
40287;DHT22;25998;46.604;13.610;2023-09-18T14:44:51;23.80;99.90
40287;DHT22;25998;46.604;13.610;2023-09-18T14:48:02;23.90;99.90
40287;DHT22;25998;46.604;13.610;2023-09-18T14:51:13;23.60;99.90
40287;DHT22;25998;46.604;13.610;2023-09-18T14:54:24;23.70;99.90
40287;DHT22;25998;46.604;13.610;2023-09-18T14:57:35;23.90;99.90
40287;DHT22;25998;46.604;13.610;2023-09-18T15:00:46;23.80;99.90
40287;DHT22;25998;46.604;13.610;2023-09-18T15:03:57;23.70;99.90
40287;DHT22;25998;46.604;13.610;2023-09-18T15:07:08;23.60;99.50
40287;DHT22;25998;46.604;13.610;2023-09-18T15:10:19;23.50;99.90
40287;DHT22;25998;46.604;13.610;2023-09-18T15:13:30;23.60;99.90
40287;DHT22;25998;46.604;13.610;2023-09-18T15:16:42;23.50;99.90
40287;DHT22;25998;46.604;13.610;2023-09-18T15:19:52;23.40;99.90
40287;DHT22;25998;46.604;13.610;2023-09-18T15:23:05;23.60;99.90
40287;DHT22;25998;46.604;13.610;2023-09-18T15:26:18;23.50;99.90
40287;DHT22;25998;46.604;13.610;2023-09-18T15:29:29;23.30;99.90
40287;DHT22;25998;46.604;13.610;2023-09-18T15:32:53;23.30;99.90
40287;DHT22;25998;46.604;13.610;2023-09-18T15:36:04;23.10;99.90
40287;DHT22;25998;46.604;13.610;2023-09-18T15:39:14;23.00;99.90
40287;DHT22;25998;46.604;13.610;2023-09-18T15:42:25;23.00;99.90
40287;DHT22;25998;46.604;13.610;2023-09-18T15:45:36;22.80;99.90
40287;DHT22;25998;46.604;13.610;2023-09-18T15:48:47;22.70;99.90
40287;DHT22;25998;46.604;13.610;2023-09-18T15:51:59;22.70;99.90
40287;DHT22;25998;46.604;13.610;2023-09-18T15:55:11;22.70;99.90
40287;DHT22;25998;46.604;13.610;2023-09-18T15:58:21;22.70;99.90
40287;DHT22;25998;46.604;13.610;2023-09-18T16:01:34;22.70;99.90
40287;DHT22;25998;46.604;13.610;2023-09-18T16:04:48;22.70;99.90
40287;DHT22;25998;46.604;13.610;2023-09-18T16:07:58;22.80;99.90
40287;DHT22;25998;46.604;13.610;2023-09-18T16:11:11;22.70;99.90
40287;DHT22;25998;46.604;13.610;2023-09-18T16:14:24;22.70;99.90
40287;DHT22;25998;46.604;13.610;2023-09-18T16:17:35;22.70;99.90
40287;DHT22;25998;46.604;13.610;2023-09-18T16:20:46;22.70;99.90
40287;DHT22;25998;46.604;13.610;2023-09-18T16:23:57;22.80;99.90
40287;DHT22;25998;46.604;13.610;2023-09-18T16:27:08;22.70;99.90
40287;DHT22;25998;46.604;13.610;2023-09-18T16:30:19;22.60;99.90
40287;DHT22;25998;46.604;13.610;2023-09-18T16:33:30;22.50;99.90
40287;DHT22;25998;46.604;13.610;2023-09-18T16:36:41;22.50;99.90
40287;DHT22;25998;46.604;13.610;2023-09-18T16:39:52;22.40;99.90
40287;DHT22;25998;46.604;13.610;2023-09-18T16:43:03;22.50;99.90
40287;DHT22;25998;46.604;13.610;2023-09-18T16:46:14;22.40;99.90
40287;DHT22;25998;46.604;13.610;2023-09-18T16:49:25;22.50;99.90
40287;DHT22;25998;46.604;13.610;2023-09-18T16:52:35;22.30;99.90
40287;DHT22;25998;46.604;13.610;2023-09-18T16:55:47;22.30;99.90
40287;DHT22;25998;46.604;13.610;2023-09-18T16:58:57;22.10;99.90
40287;DHT22;25998;46.604;13.610;2023-09-18T17:02:08;22.00;99.90
40287;DHT22;25998;46.604;13.610;2023-09-18T17:05:19;21.90;99.90
40287;DHT22;25998;46.604;13.610;2023-09-18T17:08:30;22.00;99.90
40287;DHT22;25998;46.604;13.610;2023-09-18T17:11:41;22.00;99.90
40287;DHT22;25998;46.604;13.610;2023-09-18T17:14:53;22.10;99.90
40287;DHT22;25998;46.604;13.610;2023-09-18T17:18:04;21.90;99.90
40287;DHT22;25998;46.604;13.610;2023-09-18T17:21:15;21.80;99.90
40287;DHT22;25998;46.604;13.610;2023-09-18T17:24:27;21.60;99.90
40287;DHT22;25998;46.604;13.610;2023-09-18T17:27:38;21.60;99.90
40287;DHT22;25998;46.604;13.610;2023-09-18T17:30:49;21.60;99.90
40287;DHT22;25998;46.604;13.610;2023-09-18T17:34:00;21.50;99.90
40287;DHT22;25998;46.604;13.610;2023-09-18T17:37:11;21.40;99.90
40287;DHT22;25998;46.604;13.610;2023-09-18T17:40:22;21.40;99.90
40287;DHT22;25998;46.604;13.610;2023-09-18T17:43:33;21.30;99.90
40287;DHT22;25998;46.604;13.610;2023-09-18T17:46:45;21.40;99.90
40287;DHT22;25998;46.604;13.610;2023-09-18T17:49:56;21.30;99.90
40287;DHT22;25998;46.604;13.610;2023-09-18T17:53:07;21.20;99.90
40287;DHT22;25998;46.604;13.610;2023-09-18T17:56:18;21.20;99.90
40287;DHT22;25998;46.604;13.610;2023-09-18T17:59:29;21.20;99.90
40287;DHT22;25998;46.604;13.610;2023-09-18T18:02:39;21.30;99.90
40287;DHT22;25998;46.604;13.610;2023-09-18T18:05:50;21.20;99.90
40287;DHT22;25998;46.604;13.610;2023-09-18T18:09:01;21.00;99.90
40287;DHT22;25998;46.604;13.610;2023-09-18T18:12:14;20.90;99.90
40287;DHT22;25998;46.604;13.610;2023-09-18T18:15:26;20.90;99.90
40287;DHT22;25998;46.604;13.610;2023-09-18T18:18:37;20.90;99.90
40287;DHT22;25998;46.604;13.610;2023-09-18T18:21:48;20.90;99.90
40287;DHT22;25998;46.604;13.610;2023-09-18T18:24:59;20.90;99.90
40287;DHT22;25998;46.604;13.610;2023-09-18T18:28:10;20.80;99.90
40287;DHT22;25998;46.604;13.610;2023-09-18T18:31:21;20.50;99.90
40287;DHT22;25998;46.604;13.610;2023-09-18T18:34:32;20.30;99.90
40287;DHT22;25998;46.604;13.610;2023-09-18T18:37:43;20.30;99.90
40287;DHT22;25998;46.604;13.610;2023-09-18T18:41:00;20.50;99.90
40287;DHT22;25998;46.604;13.610;2023-09-18T18:44:11;20.50;99.90
40287;DHT22;25998;46.604;13.610;2023-09-18T18:47:22;20.40;99.90
40287;DHT22;25998;46.604;13.610;2023-09-18T18:50:33;20.40;99.90
40287;DHT22;25998;46.604;13.610;2023-09-18T18:53:47;20.40;99.90
40287;DHT22;25998;46.604;13.610;2023-09-18T18:57:01;20.50;99.90
40287;DHT22;25998;46.604;13.610;2023-09-18T19:00:13;20.50;99.90
40287;DHT22;25998;46.604;13.610;2023-09-18T19:03:24;20.50;99.90
40287;DHT22;25998;46.604;13.610;2023-09-18T19:06:35;20.40;99.90
40287;DHT22;25998;46.604;13.610;2023-09-18T19:09:46;20.40;99.90
40287;DHT22;25998;46.604;13.610;2023-09-18T19:12:56;20.30;99.90
40287;DHT22;25998;46.604;13.610;2023-09-18T19:16:08;20.20;99.90
40287;DHT22;25998;46.604;13.610;2023-09-18T19:19:21;20.30;99.90
40287;DHT22;25998;46.604;13.610;2023-09-18T19:22:32;20.10;99.90
40287;DHT22;25998;46.604;13.610;2023-09-18T19:25:47;20.00;99.90
40287;DHT22;25998;46.604;13.610;2023-09-18T19:28:58;20.20;99.90
40287;DHT22;25998;46.604;13.610;2023-09-18T19:32:09;20.30;99.90
40287;DHT22;25998;46.604;13.610;2023-09-18T19:35:21;20.30;99.90
40287;DHT22;25998;46.604;13.610;2023-09-18T19:38:32;20.30;99.90
40287;DHT22;25998;46.604;13.610;2023-09-18T19:41:44;20.20;99.90
40287;DHT22;25998;46.604;13.610;2023-09-18T19:44:55;20.20;99.90
40287;DHT22;25998;46.604;13.610;2023-09-18T19:48:07;20.20;99.90
40287;DHT22;25998;46.604;13.610;2023-09-18T19:51:18;20.20;99.90
40287;DHT22;25998;46.604;13.610;2023-09-18T19:54:29;20.30;99.90
40287;DHT22;25998;46.604;13.610;2023-09-18T19:57:41;20.20;99.90
40287;DHT22;25998;46.604;13.610;2023-09-18T20:00:53;20.30;99.90
40287;DHT22;25998;46.604;13.610;2023-09-18T20:04:04;20.30;99.90
40287;DHT22;25998;46.604;13.610;2023-09-18T20:07:15;20.10;99.90